createdAt,value
2023-03-19T00:01:37.639Z,8.1
2023-03-19T00:06:44.423Z,8.1
2023-03-19T00:11:51.118Z,8.1
2023-03-19T00:16:57.835Z,8.1
2023-03-19T00:22:04.612Z,8.1
2023-03-19T00:27:11.347Z,8.1
2023-03-19T00:32:18.097Z,8
2023-03-19T00:37:24.851Z,8
2023-03-19T00:42:31.613Z,8
2023-03-19T00:47:38.312Z,8
2023-03-19T00:52:45.064Z,8
2023-03-19T00:57:51.726Z,8
2023-03-19T01:02:59.769Z,8
2023-03-19T01:08:06.522Z,8
2023-03-19T01:13:13.234Z,8
2023-03-19T01:18:19.898Z,8
2023-03-19T01:23:26.660Z,8
2023-03-19T01:28:33.439Z,7.9
2023-03-19T01:33:40.181Z,7.9
2023-03-19T01:38:46.960Z,7.9
2023-03-19T01:43:53.669Z,7.9
2023-03-19T01:49:00.387Z,7.9
2023-03-19T01:54:08.423Z,7.9
2023-03-19T01:59:15.126Z,7.9
2023-03-19T02:04:21.861Z,7.9
2023-03-19T02:09:28.615Z,7.9
2023-03-19T02:14:35.345Z,7.9
2023-03-19T02:19:42.029Z,7.9
2023-03-19T02:24:48.841Z,7.9
2023-03-19T02:29:55.577Z,7.8
2023-03-19T02:35:02.230Z,7.8
2023-03-19T02:40:10.364Z,7.8
2023-03-19T02:45:17.029Z,7.8
2023-03-19T02:50:24.036Z,7.8
2023-03-19T02:55:30.509Z,7.8
2023-03-19T03:00:37.535Z,7.8
2023-03-19T03:05:44.001Z,7.8
2023-03-19T03:10:50.750Z,7.8
2023-03-19T03:15:57.502Z,7.8
2023-03-19T03:21:04.136Z,7.7
2023-03-19T03:26:10.953Z,7.7
2023-03-19T03:31:17.742Z,7.7
2023-03-19T03:36:24.422Z,7.7
2023-03-19T03:41:31.174Z,7.7
2023-03-19T03:46:37.920Z,7.7
2023-03-19T03:51:44.634Z,7.7
2023-03-19T03:56:51.358Z,7.7
2023-03-19T04:01:58.315Z,7.7
2023-03-19T04:07:06.097Z,7.7
2023-03-19T04:12:12.894Z,7.6
2023-03-19T04:17:19.598Z,7.6
2023-03-19T04:22:26.316Z,7.6
2023-03-19T04:27:33.090Z,7.6
2023-03-19T04:32:39.839Z,7.6
2023-03-19T04:37:46.482Z,7.6
2023-03-19T04:42:53.333Z,7.6
2023-03-19T04:48:00.120Z,7.6
2023-03-19T04:53:06.768Z,7.6
2023-03-19T04:58:13.552Z,7.6
2023-03-19T05:03:20.259Z,7.6
2023-03-19T05:08:28.243Z,7.6
2023-03-19T05:13:35.009Z,7.5
2023-03-19T05:18:41.727Z,7.5
2023-03-19T05:23:48.398Z,7.5
2023-03-19T05:28:55.226Z,7.5
2023-03-19T05:34:01.954Z,7.5
2023-03-19T05:39:08.671Z,7.5
2023-03-19T05:44:15.390Z,7.5
2023-03-19T05:49:23.334Z,7.5
2023-03-19T05:54:30.121Z,7.5
2023-03-19T05:59:36.824Z,7.5
2023-03-19T06:04:43.614Z,7.5
2023-03-19T06:09:50.285Z,7.5
2023-03-19T06:14:57.142Z,7.4
2023-03-19T06:20:03.838Z,7.4
2023-03-19T06:25:10.560Z,7.4
2023-03-19T06:30:17.343Z,7.4
2023-03-19T06:35:24.114Z,7.4
2023-03-19T06:40:30.738Z,7.4
2023-03-19T06:45:37.598Z,7.4
2023-03-19T06:50:44.305Z,7.4
2023-03-19T06:55:51.010Z,7.5
2023-03-19T07:00:57.784Z,7.5
2023-03-19T07:06:04.519Z,7.5
2023-03-19T07:11:11.269Z,7.5
2023-03-19T07:16:18.075Z,7.5
2023-03-19T07:21:24.745Z,7.5
2023-03-19T07:26:31.436Z,7.5
2023-03-19T07:31:39.504Z,7.5
2023-03-19T07:36:46.174Z,7.5
2023-03-19T07:41:52.925Z,7.5
2023-03-19T07:46:59.624Z,7.5
2023-03-19T07:52:06.410Z,7.5
2023-03-19T07:57:13.162Z,7.6
2023-03-19T08:02:22.694Z,7.6
2023-03-19T08:07:26.629Z,7.6
2023-03-19T08:12:34.591Z,7.6
2023-03-19T08:17:41.522Z,7.6
2023-03-19T08:22:48.122Z,7.6
2023-03-19T08:27:54.808Z,7.6
2023-03-19T08:33:01.757Z,7.7
2023-03-19T08:38:08.445Z,7.7
2023-03-19T08:43:15.052Z,7.7
2023-03-19T08:48:21.809Z,7.7
2023-03-19T08:53:28.504Z,7.7
2023-03-19T08:58:35.309Z,7.7
2023-03-19T09:03:42.059Z,7.7
2023-03-19T09:08:48.730Z,7.7
2023-03-19T09:13:55.549Z,7.8
2023-03-19T09:19:02.307Z,7.8
2023-03-19T09:24:08.949Z,7.8
2023-03-19T09:29:15.687Z,7.8
2023-03-19T09:34:22.530Z,7.7
2023-03-19T09:39:29.249Z,7.7
2023-03-19T09:44:35.969Z,7.7
2023-03-19T09:49:42.751Z,7.8
2023-03-19T09:54:49.526Z,7.8
2023-03-19T09:59:56.218Z,7.8
2023-03-19T10:05:02.954Z,7.8
2023-03-19T10:10:09.669Z,7.8
2023-03-19T10:15:16.459Z,7.8
2023-03-19T10:20:23.207Z,7.8
2023-03-19T10:25:31.153Z,7.8
2023-03-19T10:30:37.905Z,7.9
2023-03-19T10:35:44.669Z,7.9
2023-03-19T10:40:51.408Z,7.9
2023-03-19T10:45:58.225Z,7.9
2023-03-19T10:51:04.851Z,7.9
2023-03-19T10:56:12.871Z,7.9
2023-03-19T11:01:19.636Z,7.9
2023-03-19T11:06:26.371Z,7.9
2023-03-19T11:11:33.036Z,8
2023-03-19T11:16:39.928Z,8
2023-03-19T11:21:46.520Z,8
2023-03-19T11:26:53.261Z,8
2023-03-19T11:32:06.042Z,8
2023-03-19T11:37:06.771Z,8.1
2023-03-19T11:42:13.471Z,8.1
2023-03-19T11:47:27.181Z,8.1
2023-03-19T11:52:26.981Z,8.1
2023-03-19T11:57:33.697Z,8.1
2023-03-19T12:02:40.530Z,8.2
2023-03-19T12:07:47.199Z,8.2
2023-03-19T12:12:53.936Z,8.2
2023-03-19T12:18:00.658Z,8.3
2023-03-19T12:23:07.442Z,8.3
2023-03-19T12:28:14.128Z,8.3
2023-03-19T12:33:20.880Z,8.3
2023-03-19T12:38:27.822Z,8.4
2023-03-19T12:43:34.362Z,8.4
2023-03-19T12:48:41.012Z,8.5
2023-03-19T12:53:49.095Z,8.5
2023-03-19T12:58:58.138Z,8.5
2023-03-19T13:04:02.484Z,8.5
2023-03-19T13:09:09.311Z,8.6
2023-03-19T13:14:16.026Z,8.6
2023-03-19T13:19:22.788Z,8.6
2023-03-19T13:24:29.538Z,8.6
2023-03-19T13:29:37.492Z,8.6
2023-03-19T13:34:45.389Z,8.7
2023-03-19T13:39:52.401Z,8.7
2023-03-19T13:44:58.933Z,8.7
2023-03-19T13:50:05.771Z,8.7
2023-03-19T13:55:12.432Z,8.7
2023-03-19T14:00:19.171Z,8.7
2023-03-19T14:05:25.892Z,8.7
2023-03-19T14:10:32.863Z,8.7
2023-03-19T14:15:39.381Z,8.7
2023-03-19T14:20:48.332Z,8.7
2023-03-19T14:25:54.123Z,8.7
2023-03-19T14:31:00.802Z,8.8
2023-03-19T14:36:07.578Z,8.8
2023-03-19T14:41:14.325Z,8.8
2023-03-19T14:46:21.127Z,8.8
2023-03-19T14:51:27.705Z,8.8
2023-03-19T14:56:34.473Z,8.8
2023-03-19T15:01:41.256Z,8.8
2023-03-19T15:06:48.002Z,8.8
2023-03-19T15:11:54.759Z,8.8
2023-03-19T15:17:01.603Z,8.8
2023-03-19T15:22:08.214Z,8.8
2023-03-19T15:27:15.204Z,8.8
2023-03-19T15:32:21.733Z,8.9
2023-03-19T15:37:29.742Z,8.9
2023-03-19T15:42:36.560Z,8.9
2023-03-19T15:47:43.081Z,8.9
2023-03-19T15:52:49.894Z,8.9
2023-03-19T15:57:56.685Z,9
2023-03-19T16:03:03.467Z,9
2023-03-19T16:08:10.116Z,9
2023-03-19T16:13:16.904Z,9
2023-03-19T16:18:23.535Z,9
2023-03-19T16:23:31.568Z,9
2023-03-19T16:28:38.337Z,9
2023-03-19T16:33:46.280Z,9
2023-03-19T16:38:53.006Z,9
2023-03-19T16:43:59.744Z,9
2023-03-19T16:49:06.500Z,9
2023-03-19T16:54:14.450Z,8.9
2023-03-19T16:59:21.174Z,8.9
2023-03-19T17:04:27.968Z,8.9
2023-03-19T17:09:34.673Z,8.9
2023-03-19T17:14:41.433Z,8.9
2023-03-19T17:19:48.151Z,8.9
2023-03-19T17:24:54.897Z,8.9
2023-03-19T17:30:01.709Z,8.9
2023-03-19T17:35:08.365Z,8.9
2023-03-19T17:40:15.113Z,8.8
2023-03-19T17:45:21.875Z,8.8
2023-03-19T17:50:29.817Z,8.8
2023-03-19T17:55:36.557Z,8.8
2023-03-19T18:00:43.420Z,8.8
2023-03-19T18:05:51.287Z,8.7
2023-03-19T18:10:58.016Z,8.7
2023-03-19T18:16:04.730Z,8.7
2023-03-19T18:21:11.496Z,8.6
2023-03-19T18:26:18.261Z,8.7
2023-03-19T18:31:25.026Z,8.6
2023-03-19T18:36:31.739Z,8.7
2023-03-19T18:41:39.695Z,8.6
2023-03-19T18:46:46.447Z,8.7
2023-03-19T18:52:04.047Z,8.6
2023-03-19T18:56:59.926Z,8.5
2023-03-19T19:02:06.681Z,8.5
2023-03-19T19:07:13.396Z,8.6
2023-03-19T19:12:20.053Z,8.5
2023-03-19T19:17:28.125Z,8.5
2023-03-19T19:22:34.847Z,8.5
2023-03-19T19:27:41.572Z,8.5
2023-03-19T19:32:48.606Z,8.4
2023-03-19T19:37:55.058Z,8.4
2023-03-19T19:43:01.745Z,8.4
2023-03-19T19:48:08.573Z,8.4
2023-03-19T19:53:15.293Z,8.4
2023-03-19T19:58:22.027Z,8.4
2023-03-19T20:03:28.821Z,8.3
2023-03-19T20:08:36.768Z,8.3
2023-03-19T20:13:43.466Z,8.3
2023-03-19T20:18:50.243Z,8.3
2023-03-19T20:23:56.907Z,8.2
2023-03-19T20:29:03.686Z,8.2
2023-03-19T20:34:10.452Z,8.2
2023-03-19T20:39:17.186Z,8.2
2023-03-19T20:44:23.926Z,8.2
2023-03-19T20:49:31.926Z,8.2
2023-03-19T20:54:38.635Z,8.2
2023-03-19T20:59:45.355Z,8.1
2023-03-19T21:04:52.128Z,8.1
2023-03-19T21:09:58.791Z,8.1
2023-03-19T21:15:05.614Z,8.1
2023-03-19T21:20:12.363Z,8.1
2023-03-19T21:25:19.068Z,8.1
2023-03-19T21:30:25.834Z,8
2023-03-19T21:35:34.316Z,8.1
2023-03-19T21:40:40.452Z,8.1
2023-03-19T21:45:47.251Z,8
2023-03-19T21:50:53.957Z,8
2023-03-19T21:56:00.749Z,8
2023-03-19T22:01:07.589Z,8
2023-03-19T22:06:14.252Z,8
2023-03-19T22:11:20.981Z,8
2023-03-19T22:16:27.817Z,8
2023-03-19T22:21:34.420Z,8
2023-03-19T22:26:42.374Z,8
2023-03-19T22:31:49.212Z,7.9
2023-03-19T22:36:55.937Z,7.9
2023-03-19T22:42:02.626Z,7.9
2023-03-19T22:47:09.386Z,7.9
2023-03-19T22:52:16.175Z,7.9
2023-03-19T22:57:22.882Z,7.9
2023-03-19T23:02:29.607Z,7.9
2023-03-19T23:07:37.627Z,7.9
2023-03-19T23:12:44.329Z,7.9
2023-03-19T23:17:51.062Z,7.9
2023-03-19T23:22:57.822Z,7.9
2023-03-19T23:28:04.525Z,7.9
2023-03-19T23:33:11.396Z,7.9
2023-03-19T23:38:18.045Z,7.9
2023-03-19T23:43:24.711Z,7.9
2023-03-19T23:48:31.491Z,7.8
2023-03-19T23:53:38.276Z,7.8
2023-03-19T23:58:46.221Z,7.8
